Friday, October 31, 2014
16:29 UTC
  |  Log In   |  Register Free
Airport Search:

Newnan Coweta County Airport
(KCCO)

Newnan Coweta County Airport Diagram
No Airport Diagram Available

FAA data valid effective September 18, 2014 - November 13, 2014 (unless otherwise noted).

 
 
 
 
 
 
 
 
 
 
 
 
 
 

Current Aviation Weather for Newnan Coweta County Airport (KCCO)

The most recent METAR observation for KCCO was updated at: 1609
METAR Summary (Translated METAR)
KCCO
311555Z AUTO 28005KT 10SM SCT085 SCT100 16/07 A2995 RMK AO2 T01560072
KFFC
311553Z AUTO 31008KT 10SM CLR 16/06 A2995 RMK AO2 SLP142 T01560056
(10.3 nm NE from KCCO)
KLGC
311555Z AUTO 35005KT 10SM SCT100 18/07 A2996 RMK AO2 T01790074
(23.7 nm SW from KCCO)
TAF
No TAF information found within 50 nm of KCCO
  Airport Weather Conditions for KCCO

 Current Weather at CCO
60° F
Partly Cloudy
West winds at 5.8 mph
CCO NOAA Radar

Pressure: 29.95 in
Humidity: 58%
Wind: West at 5.8 MPH (5 KT)
Dew Point: 45.0°F
Visibility: 10.00 mi


Airport Weather Forecast for KCCO

Translated METAR and TAF for KCCO
Translated METAR for KCCO (1624 UTC 31 October 2014)
found at http://aviationweather.gov/adds/metars/
 
METAR text: KCCO 311615Z AUTO 30005KT 10SM SCT110 17/07 A2994 RMK AO2 T01680070
Conditions at: KCCO (NEWNAN , GA, US) observed 1615 UTC 31 October 2014
Temperature: 16.8°C (62°F)
Dewpoint: 7.0°C (45°F) [RH = 52%]
Pressure (altimeter): 29.94 inches Hg (1014.0 mb)
Winds: from the WNW (300 degrees) at 6 MPH (5 knots; 2.6 m/s)
Visibility: 10 or more miles (16+ km)
Ceiling: at least 12,000 feet AGL
Clouds: scattered clouds at 11000 feet AGL
Weather: automated observation with no human augmentation;
there may or may not be significant weather present at this time
Translated TAF for KCCO

There is no translated TAF available for this airport

Find All Airport Services Find A Hotel Find A Rental Car Find A Golf Course Find A Restaurant $100 Hamburger



FBO's on the Field
FBO Company Facility Photos Services Transportation Aviation Fuel Prices: Prices include tax
Catering Weather Repair Courtesy Rental Type 100LL JetA JetA+ MOGAS 8087
 
CCO Airport Services

This FBO has not yet been rated
FS:Shell
Last Updated: Oct-13
Login to update fuel prices
SS:
Contact CCO Airport ServicesMore FBO Information
 
Add another FBO Facility Photos Catering Weather Repair Courtesy Rental Type 100LL JetA JetA+ MOGAS 8087
Services Transportation Aviation Fuel Prices: Prices include tax


model-print
model-print
model-print
model-print